sensor_id;sensor_type;location;lat;lon;timestamp;pressure;altitude;pressure_sealevel;temperature;humidity
74474;BME280;62922;-6.168;106.796;2023-03-09T00:00:00;101237.69;;;28.83;75.07
74474;BME280;62922;-6.168;106.796;2023-03-09T00:02:26;101249.16;;;28.86;75.14
74474;BME280;62922;-6.168;106.796;2023-03-09T00:04:51;101252.72;;;28.92;76.43
74474;BME280;62922;-6.168;106.796;2023-03-09T00:07:17;101259.50;;;29.04;77.08
74474;BME280;62922;-6.168;106.796;2023-03-09T00:09:43;101255.16;;;29.12;77.85
74474;BME280;62922;-6.168;106.796;2023-03-09T00:12:09;101256.81;;;29.13;77.07
74474;BME280;62922;-6.168;106.796;2023-03-09T00:14:35;101264.69;;;29.11;77.06
74474;BME280;62922;-6.168;106.796;2023-03-09T00:17:01;101267.28;;;29.07;76.93
74474;BME280;62922;-6.168;106.796;2023-03-09T00:19:27;101267.59;;;29.06;76.83
74474;BME280;62922;-6.168;106.796;2023-03-09T00:21:54;101273.81;;;29.03;77.18
74474;BME280;62922;-6.168;106.796;2023-03-09T00:24:22;101278.94;;;29.01;76.05
74474;BME280;62922;-6.168;106.796;2023-03-09T00:26:54;101277.25;;;29.00;75.92
74474;BME280;62922;-6.168;106.796;2023-03-09T00:29:23;101275.59;;;28.99;76.53
74474;BME280;62922;-6.168;106.796;2023-03-09T00:31:49;101277.25;;;29.00;76.54
74474;BME280;62922;-6.168;106.796;2023-03-09T00:34:15;101286.22;;;29.02;76.08
74474;BME280;62922;-6.168;106.796;2023-03-09T00:36:41;101281.66;;;29.06;76.45
74474;BME280;62922;-6.168;106.796;2023-03-09T00:39:08;101293.44;;;29.08;76.67
74474;BME280;62922;-6.168;106.796;2023-03-09T00:41:34;101301.84;;;29.08;76.14
74474;BME280;62922;-6.168;106.796;2023-03-09T00:44:01;101306.63;;;29.07;76.67
74474;BME280;62922;-6.168;106.796;2023-03-09T00:46:27;101302.44;;;29.05;76.18
74474;BME280;62922;-6.168;106.796;2023-03-09T00:48:56;101305.34;;;29.00;76.47
74474;BME280;62922;-6.168;106.796;2023-03-09T00:51:23;101314.09;;;28.98;76.12
74474;BME280;62922;-6.168;106.796;2023-03-09T00:53:49;101317.75;;;28.99;75.59
74474;BME280;62922;-6.168;106.796;2023-03-09T00:56:16;101317.75;;;28.99;75.75
74474;BME280;62922;-6.168;106.796;2023-03-09T00:58:42;101323.38;;;28.99;75.72
74474;BME280;62922;-6.168;106.796;2023-03-09T01:01:09;101325.56;;;29.02;75.40
74474;BME280;62922;-6.168;106.796;2023-03-09T01:03:35;101317.44;;;29.00;75.36
74474;BME280;62922;-6.168;106.796;2023-03-09T01:06:01;101321.38;;;28.99;75.29
74474;BME280;62922;-6.168;106.796;2023-03-09T01:08:27;101323.91;;;29.01;75.83
74474;BME280;62922;-6.168;106.796;2023-03-09T01:10:53;101323.91;;;29.01;75.32
74474;BME280;62922;-6.168;106.796;2023-03-09T01:13:19;101322.75;;;29.02;75.03
74474;BME280;62922;-6.168;106.796;2023-03-09T01:15:44;101331.19;;;29.02;75.18
74474;BME280;62922;-6.168;106.796;2023-03-09T01:18:10;101329.53;;;29.01;75.19
74474;BME280;62922;-6.168;106.796;2023-03-09T01:20:38;101324.19;;;28.99;74.75
74474;BME280;62922;-6.168;106.796;2023-03-09T01:23:04;101327.84;;;29.00;74.85
74474;BME280;62922;-6.168;106.796;2023-03-09T01:25:30;101319.72;;;28.98;75.17
74474;BME280;62922;-6.168;106.796;2023-03-09T01:27:59;101327.00;;;28.99;74.93
74474;BME280;62922;-6.168;106.796;2023-03-09T01:30:25;101321.69;;;28.98;74.77
74474;BME280;62922;-6.168;106.796;2023-03-09T01:32:51;101322.84;;;28.97;74.70
74474;BME280;62922;-6.168;106.796;2023-03-09T01:35:18;101324.81;;;28.96;74.77
74474;BME280;62922;-6.168;106.796;2023-03-09T01:37:44;101322.84;;;28.97;75.03
74474;BME280;62922;-6.168;106.796;2023-03-09T01:40:20;101333.25;;;28.96;74.83
74474;BME280;62922;-6.168;106.796;2023-03-09T01:47:43;101325.13;;;28.95;74.88
74474;BME280;62922;-6.168;106.796;2023-03-09T01:50:09;101321.16;;;28.96;74.73
74474;BME280;62922;-6.168;106.796;2023-03-09T01:52:35;101334.09;;;28.97;74.74
74474;BME280;62922;-6.168;106.796;2023-03-09T01:55:04;101329.91;;;28.94;74.59
74474;BME280;62922;-6.168;106.796;2023-03-09T01:57:33;101329.91;;;28.94;74.94
74474;BME280;62922;-6.168;106.796;2023-03-09T02:00:01;101331.59;;;28.95;74.73
74474;BME280;62922;-6.168;106.796;2023-03-09T02:02:33;101329.91;;;28.94;74.88
74474;BME280;62922;-6.168;106.796;2023-03-09T02:05:01;101329.91;;;28.94;74.60
74474;BME280;62922;-6.168;106.796;2023-03-09T02:07:29;101327.63;;;28.96;74.45
74474;BME280;62922;-6.168;106.796;2023-03-09T02:10:03;101316.69;;;28.95;74.45
74474;BME280;62922;-6.168;106.796;2023-03-09T02:12:30;101318.66;;;28.94;74.67
74474;BME280;62922;-6.168;106.796;2023-03-09T02:14:56;101311.06;;;28.95;74.91
74474;BME280;62922;-6.168;106.796;2023-03-09T02:17:22;101315.84;;;28.94;74.66
74474;BME280;62922;-6.168;106.796;2023-03-09T02:19:53;101310.22;;;28.94;74.53
74474;BME280;62922;-6.168;106.796;2023-03-09T02:22:21;101310.22;;;28.94;74.77
74474;BME280;62922;-6.168;106.796;2023-03-09T02:27:19;101311.06;;;28.95;74.44
74474;BME280;62922;-6.168;106.796;2023-03-09T02:29:46;101312.72;;;28.96;74.76
74474;BME280;62922;-6.168;106.796;2023-03-09T02:32:12;101309.91;;;28.96;74.43
74474;BME280;62922;-6.168;106.796;2023-03-09T02:34:38;101310.75;;;28.96;74.72
74474;BME280;62922;-6.168;106.796;2023-03-09T02:37:20;101306.81;;;28.97;74.64
74474;BME280;62922;-6.168;106.796;2023-03-09T02:39:47;101306.50;;;28.99;74.68
74474;BME280;62922;-6.168;106.796;2023-03-09T02:42:14;101303.72;;;28.99;74.63
74474;BME280;62922;-6.168;106.796;2023-03-09T02:44:41;101296.94;;;29.00;74.41
74474;BME280;62922;-6.168;106.796;2023-03-09T02:47:08;101290.47;;;28.99;74.14
74474;BME280;62922;-6.168;106.796;2023-03-09T02:49:34;101289.69;;;29.12;73.57
74474;BME280;62922;-6.168;106.796;2023-03-09T02:52:00;101294.72;;;29.15;73.51
74474;BME280;62922;-6.168;106.796;2023-03-09T02:54:26;101284.00;;;29.17;73.50
74474;BME280;62922;-6.168;106.796;2023-03-09T02:56:52;101277.53;;;29.17;73.46
74474;BME280;62922;-6.168;106.796;2023-03-09T02:59:20;101278.38;;;29.17;73.42
74474;BME280;62922;-6.168;106.796;2023-03-09T03:01:46;101266.31;;;29.17;73.55
74474;BME280;62922;-6.168;106.796;2023-03-09T03:04:12;101262.34;;;29.18;73.19
74474;BME280;62922;-6.168;106.796;2023-03-09T03:06:38;101264.03;;;29.19;73.74
74474;BME280;62922;-6.168;106.796;2023-03-09T03:09:05;101246.00;;;29.20;73.56
74474;BME280;62922;-6.168;106.796;2023-03-09T03:11:31;101254.13;;;29.21;73.58
74474;BME280;62922;-6.168;106.796;2023-03-09T03:13:57;101245.69;;;29.21;73.28
74474;BME280;62922;-6.168;106.796;2023-03-09T03:16:23;101249.00;;;29.23;73.20
74474;BME280;62922;-6.168;106.796;2023-03-09T03:18:49;101243.41;;;29.23;73.19
74474;BME280;62922;-6.168;106.796;2023-03-09T03:21:15;101248.41;;;29.26;73.30
74474;BME280;62922;-6.168;106.796;2023-03-09T03:23:44;101247.56;;;29.26;73.27
74474;BME280;62922;-6.168;106.796;2023-03-09T03:26:10;101238.28;;;29.25;72.93
74474;BME280;62922;-6.168;106.796;2023-03-09T03:28:36;101239.97;;;29.26;73.11
74474;BME280;62922;-6.168;106.796;2023-03-09T03:31:03;101237.16;;;29.26;72.91
74474;BME280;62922;-6.168;106.796;2023-03-09T03:33:29;101232.34;;;29.27;72.67
74474;BME280;62922;-6.168;106.796;2023-03-09T03:35:55;101223.13;;;29.26;72.97
74474;BME280;62922;-6.168;106.796;2023-03-09T03:38:21;101225.94;;;29.26;72.69
74474;BME280;62922;-6.168;106.796;2023-03-09T03:40:48;101220.00;;;29.28;73.02
74474;BME280;62922;-6.168;106.796;2023-03-09T03:43:14;101228.09;;;29.29;72.79
74474;BME280;62922;-6.168;106.796;2023-03-09T03:45:40;101219.66;;;29.29;72.45
74474;BME280;62922;-6.168;106.796;2023-03-09T03:48:06;101222.47;;;29.29;72.40
74474;BME280;62922;-6.168;106.796;2023-03-09T03:50:31;101218.50;;;29.30;72.76
74474;BME280;62922;-6.168;106.796;2023-03-09T03:52:57;101209.78;;;29.32;72.50
74474;BME280;62922;-6.168;106.796;2023-03-09T03:55:23;101202.16;;;29.32;72.61
74474;BME280;62922;-6.168;106.796;2023-03-09T03:57:49;101198.22;;;29.33;72.38
74474;BME280;62922;-6.168;106.796;2023-03-09T04:00:15;101197.91;;;29.35;72.67
74474;BME280;62922;-6.168;106.796;2023-03-09T04:02:43;101190.00;;;29.37;72.51
74474;BME280;62922;-6.168;106.796;2023-03-09T04:05:09;101193.00;;;29.40;72.23
74474;BME280;62922;-6.168;106.796;2023-03-09T04:07:35;101188.22;;;29.41;72.14
74474;BME280;62922;-6.168;106.796;2023-03-09T04:10:01;101187.59;;;29.44;71.92
74474;BME280;62922;-6.168;106.796;2023-03-09T04:12:27;101178.00;;;29.45;72.37
74474;BME280;62922;-6.168;106.796;2023-03-09T04:14:52;101170.09;;;29.47;72.08
74474;BME280;62922;-6.168;106.796;2023-03-09T04:17:18;101177.91;;;29.50;72.33
74474;BME280;62922;-6.168;106.796;2023-03-09T04:19:44;101173.63;;;29.52;71.90
74474;BME280;62922;-6.168;106.796;2023-03-09T04:22:10;101169.03;;;29.56;71.99
74474;BME280;62922;-6.168;106.796;2023-03-09T04:24:36;101163.94;;;29.58;72.15
74474;BME280;62922;-6.168;106.796;2023-03-09T04:27:02;101164.78;;;29.59;71.86
74474;BME280;62922;-6.168;106.796;2023-03-09T04:29:30;101165.56;;;29.59;71.52
74474;BME280;62922;-6.168;106.796;2023-03-09T04:31:56;101158.81;;;29.60;71.92
74474;BME280;62922;-6.168;106.796;2023-03-09T04:34:22;101154.31;;;29.59;71.60
74474;BME280;62922;-6.168;106.796;2023-03-09T04:36:48;101154.31;;;29.59;71.86
74474;BME280;62922;-6.168;106.796;2023-03-09T04:39:14;101153.19;;;29.60;71.65
74474;BME280;62922;-6.168;106.796;2023-03-09T04:41:40;101144.13;;;29.63;71.73
74474;BME280;62922;-6.168;106.796;2023-03-09T04:44:06;101144.13;;;29.63;71.81
74474;BME280;62922;-6.168;106.796;2023-03-09T04:46:32;101140.19;;;29.64;71.75
74474;BME280;62922;-6.168;106.796;2023-03-09T04:48:58;101137.34;;;29.64;71.58
74474;BME280;62922;-6.168;106.796;2023-03-09T04:51:24;101141.50;;;29.67;71.55
74474;BME280;62922;-6.168;106.796;2023-03-09T04:53:50;101126.63;;;29.66;71.50
74474;BME280;62922;-6.168;106.796;2023-03-09T04:56:15;101130.25;;;29.67;71.64
74474;BME280;62922;-6.168;106.796;2023-03-09T04:58:41;101115.66;;;29.65;71.33
74474;BME280;62922;-6.168;106.796;2023-03-09T05:01:07;101111.22;;;29.64;71.63
74474;BME280;62922;-6.168;106.796;2023-03-09T05:03:33;101113.38;;;29.67;71.67
74474;BME280;62922;-6.168;106.796;2023-03-09T05:05:59;101102.38;;;29.57;71.63
74474;BME280;62922;-6.168;106.796;2023-03-09T05:08:25;101108.63;;;29.54;72.02
74474;BME280;62922;-6.168;106.796;2023-03-09T05:10:53;101106.97;;;29.53;71.88
74474;BME280;62922;-6.168;106.796;2023-03-09T05:13:19;101097.38;;;29.54;71.80
74474;BME280;62922;-6.168;106.796;2023-03-09T05:15:47;101100.19;;;29.54;72.00
74474;BME280;62922;-6.168;106.796;2023-03-09T05:18:13;101096.25;;;29.55;72.42
74474;BME280;62922;-6.168;106.796;2023-03-09T05:20:39;101090.63;;;29.55;71.90
74474;BME280;62922;-6.168;106.796;2023-03-09T05:23:05;101079.03;;;29.56;72.21
74474;BME280;62922;-6.168;106.796;2023-03-09T05:25:31;101077.91;;;29.57;72.09
74474;BME280;62922;-6.168;106.796;2023-03-09T05:28:00;101084.03;;;29.59;72.04
74474;BME280;62922;-6.168;106.796;2023-03-09T05:30:26;101068.81;;;29.60;71.99
74474;BME280;62922;-6.168;106.796;2023-03-09T05:32:51;101069.03;;;29.64;72.04
74474;BME280;62922;-6.168;106.796;2023-03-09T05:35:18;101076.00;;;29.66;71.90
74474;BME280;62922;-6.168;106.796;2023-03-09T05:37:44;101063.59;;;29.67;71.98
74474;BME280;62922;-6.168;106.796;2023-03-09T05:40:12;101064.13;;;29.69;72.24
74474;BME280;62922;-6.168;106.796;2023-03-09T05:42:38;101059.88;;;29.72;72.08
74474;BME280;62922;-6.168;106.796;2023-03-09T05:45:07;101058.69;;;29.73;72.16
74474;BME280;62922;-6.168;106.796;2023-03-09T05:47:34;101061.91;;;29.80;71.73
74474;BME280;62922;-6.168;106.796;2023-03-09T05:50:00;101054.34;;;29.89;71.30
74474;BME280;62922;-6.168;106.796;2023-03-09T05:52:26;101052.56;;;29.93;71.42
74474;BME280;62922;-6.168;106.796;2023-03-09T05:54:52;101042.66;;;29.96;71.13
74474;BME280;62922;-6.168;106.796;2023-03-09T05:57:18;101033.88;;;29.97;71.36
74474;BME280;62922;-6.168;106.796;2023-03-09T05:59:46;101033.25;;;30.00;71.39
74474;BME280;62922;-6.168;106.796;2023-03-09T06:02:12;101029.28;;;30.01;71.10
74474;BME280;62922;-6.168;106.796;2023-03-09T06:04:38;101014.06;;;30.02;71.04
74474;BME280;62922;-6.168;106.796;2023-03-09T06:07:04;101012.06;;;30.03;70.79
74474;BME280;62922;-6.168;106.796;2023-03-09T06:09:30;101013.91;;;30.07;70.74
74474;BME280;62922;-6.168;106.796;2023-03-09T06:11:56;101010.78;;;30.09;71.02
74474;BME280;62922;-6.168;106.796;2023-03-09T06:14:21;101005.66;;;30.11;70.98
74474;BME280;62922;-6.168;106.796;2023-03-09T06:16:47;100996.41;;;30.10;70.69
74474;BME280;62922;-6.168;106.796;2023-03-09T06:19:13;100994.91;;;30.13;70.82
74474;BME280;62922;-6.168;106.796;2023-03-09T06:21:39;100987.81;;;30.15;70.75
74474;BME280;62922;-6.168;106.796;2023-03-09T06:24:05;100974.25;;;30.17;70.33
74474;BME280;62922;-6.168;106.796;2023-03-09T06:26:31;100973.91;;;30.19;70.38
74474;BME280;62922;-6.168;106.796;2023-03-09T06:28:57;100976.91;;;30.22;70.29
74474;BME280;62922;-6.168;106.796;2023-03-09T06:31:23;100967.31;;;30.23;70.28
74474;BME280;62922;-6.168;106.796;2023-03-09T06:33:49;100972.31;;;30.26;70.08
74474;BME280;62922;-6.168;106.796;2023-03-09T06:36:15;100972.00;;;30.28;70.24
74474;BME280;62922;-6.168;106.796;2023-03-09T06:38:42;100959.25;;;30.30;69.90
74474;BME280;62922;-6.168;106.796;2023-03-09T06:41:08;100969.88;;;30.33;70.40
74474;BME280;62922;-6.168;106.796;2023-03-09T06:43:36;100955.44;;;30.35;70.03
74474;BME280;62922;-6.168;106.796;2023-03-09T06:46:02;100945.88;;;30.36;69.83
74474;BME280;62922;-6.168;106.796;2023-03-09T06:48:28;100941.56;;;30.38;69.95
74474;BME280;62922;-6.168;106.796;2023-03-09T06:50:54;100939.25;;;30.40;69.98
74474;BME280;62922;-6.168;106.796;2023-03-09T06:53:19;100935.63;;;30.40;69.85
74474;BME280;62922;-6.168;106.796;2023-03-09T06:55:45;100941.44;;;30.43;69.89
74474;BME280;62922;-6.168;106.796;2023-03-09T06:58:11;100926.16;;;30.44;69.65
74474;BME280;62922;-6.168;106.796;2023-03-09T07:00:37;100928.66;;;30.46;70.10
74474;BME280;62922;-6.168;106.796;2023-03-09T07:03:06;100925.22;;;30.49;69.56
74474;BME280;62922;-6.168;106.796;2023-03-09T07:05:34;100926.53;;;30.51;69.88
74474;BME280;62922;-6.168;106.796;2023-03-09T07:08:00;100922.56;;;30.52;69.87
74474;BME280;62922;-6.168;106.796;2023-03-09T07:10:26;100918.06;;;30.51;69.56
74474;BME280;62922;-6.168;106.796;2023-03-09T07:12:52;100903.66;;;30.53;69.34
74474;BME280;62922;-6.168;106.796;2023-03-09T07:15:17;100905.34;;;30.54;69.24
74474;BME280;62922;-6.168;106.796;2023-03-09T07:17:43;100901.69;;;30.53;69.58
74474;BME280;62922;-6.168;106.796;2023-03-09T07:20:10;100894.56;;;30.56;69.51
74474;BME280;62922;-6.168;106.796;2023-03-09T07:22:37;100897.06;;;30.57;69.28
74474;BME280;62922;-6.168;106.796;2023-03-09T07:25:03;100897.56;;;30.59;69.16
74474;BME280;62922;-6.168;106.796;2023-03-09T07:27:28;100898.41;;;30.60;69.03
74474;BME280;62922;-6.168;106.796;2023-03-09T07:29:55;100891.59;;;30.61;69.01
74474;BME280;62922;-6.168;106.796;2023-03-09T07:32:24;100890.91;;;30.64;68.96
74474;BME280;62922;-6.168;106.796;2023-03-09T07:34:49;100881.31;;;30.65;69.19
74474;BME280;62922;-6.168;106.796;2023-03-09T07:37:15;100879.66;;;30.64;68.70
74474;BME280;62922;-6.168;106.796;2023-03-09T07:39:41;100870.91;;;30.65;68.92
74474;BME280;62922;-6.168;106.796;2023-03-09T07:42:07;100875.03;;;30.68;69.23
74474;BME280;62922;-6.168;106.796;2023-03-09T07:44:33;100870.72;;;30.71;69.21
74474;BME280;62922;-6.168;106.796;2023-03-09T07:46:59;100871.22;;;30.73;69.30
74474;BME280;62922;-6.168;106.796;2023-03-09T07:49:25;100874.03;;;30.73;68.94
74474;BME280;62922;-6.168;106.796;2023-03-09T07:51:51;100868.06;;;30.74;68.95
74474;BME280;62922;-6.168;106.796;2023-03-09T07:54:16;100874.22;;;30.76;68.86
74474;BME280;62922;-6.168;106.796;2023-03-09T07:56:42;100873.53;;;30.79;68.53
74474;BME280;62922;-6.168;106.796;2023-03-09T07:59:14;100864.75;;;30.81;69.05
74474;BME280;62922;-6.168;106.796;2023-03-09T08:01:40;100858.00;;;30.82;68.54
74474;BME280;62922;-6.168;106.796;2023-03-09T08:04:06;100854.00;;;30.83;68.89
74474;BME280;62922;-6.168;106.796;2023-03-09T08:06:32;100862.97;;;30.85;68.77
74474;BME280;62922;-6.168;106.796;2023-03-09T08:08:59;100848.53;;;30.86;68.73
74474;BME280;62922;-6.168;106.796;2023-03-09T08:11:25;100836.97;;;30.88;68.62
74474;BME280;62922;-6.168;106.796;2023-03-09T08:13:51;100842.59;;;30.88;68.63
74474;BME280;62922;-6.168;106.796;2023-03-09T08:16:16;100840.59;;;30.88;68.55
74474;BME280;62922;-6.168;106.796;2023-03-09T08:18:43;100838.28;;;30.90;68.33
74474;BME280;62922;-6.168;106.796;2023-03-09T08:21:11;100830.31;;;30.92;68.59
74474;BME280;62922;-6.168;106.796;2023-03-09T08:23:37;100832.78;;;30.94;68.29
74474;BME280;62922;-6.168;106.796;2023-03-09T08:26:05;100834.97;;;30.97;68.24
74474;BME280;62922;-6.168;106.796;2023-03-09T08:28:31;100841.41;;;30.97;68.06
74474;BME280;62922;-6.168;106.796;2023-03-09T08:30:57;100833.78;;;30.98;68.33
74474;BME280;62922;-6.168;106.796;2023-03-09T08:33:24;100839.94;;;31.00;68.24
74474;BME280;62922;-6.168;106.796;2023-03-09T08:35:53;100835.94;;;31.01;68.26
74474;BME280;62922;-6.168;106.796;2023-03-09T08:38:19;100841.25;;;31.02;68.04
74474;BME280;62922;-6.168;106.796;2023-03-09T08:40:45;100847.88;;;31.06;68.28
74474;BME280;62922;-6.168;106.796;2023-03-09T08:43:10;100841.91;;;31.08;67.99
74474;BME280;62922;-6.168;106.796;2023-03-09T08:45:37;100846.38;;;31.09;67.84
74474;BME280;62922;-6.168;106.796;2023-03-09T08:48:03;100842.06;;;31.11;68.29
74474;BME280;62922;-6.168;106.796;2023-03-09T08:50:29;100842.88;;;31.12;67.71
74474;BME280;62922;-6.168;106.796;2023-03-09T08:52:55;100840.06;;;31.12;67.54
74474;BME280;62922;-6.168;106.796;2023-03-09T08:55:21;100841.75;;;31.13;67.80
74474;BME280;62922;-6.168;106.796;2023-03-09T08:57:47;100832.09;;;31.14;67.55
74474;BME280;62922;-6.168;106.796;2023-03-09T09:00:13;100832.59;;;31.16;67.51
74474;BME280;62922;-6.168;106.796;2023-03-09T09:02:42;100828.94;;;31.15;67.65
74474;BME280;62922;-6.168;106.796;2023-03-09T09:05:08;100831.47;;;31.17;67.35
74474;BME280;62922;-6.168;106.796;2023-03-09T09:07:34;100828.63;;;31.17;67.61
74474;BME280;62922;-6.168;106.796;2023-03-09T09:10:00;100818.00;;;31.14;67.27
74474;BME280;62922;-6.168;106.796;2023-03-09T09:12:26;100835.75;;;31.14;67.23
74474;BME280;62922;-6.168;106.796;2023-03-09T09:14:54;100829.28;;;31.14;66.93
74474;BME280;62922;-6.168;106.796;2023-03-09T09:17:19;100835.75;;;31.14;67.04
74474;BME280;62922;-6.168;106.796;2023-03-09T09:19:48;100829.28;;;31.14;66.72
74474;BME280;62922;-6.168;106.796;2023-03-09T09:22:16;100824.81;;;31.13;66.68
74474;BME280;62922;-6.168;106.796;2023-03-09T09:24:42;100831.31;;;31.13;66.59
74474;BME280;62922;-6.168;106.796;2023-03-09T09:27:09;100828.78;;;31.12;66.77
74474;BME280;62922;-6.168;106.796;2023-03-09T09:29:38;100826.47;;;31.14;66.79
74474;BME280;62922;-6.168;106.796;2023-03-09T09:32:05;100833.78;;;31.15;66.57
74474;BME280;62922;-6.168;106.796;2023-03-09T09:34:32;100824.97;;;31.16;67.11
74474;BME280;62922;-6.168;106.796;2023-03-09T09:37:00;100833.94;;;31.18;66.98
74474;BME280;62922;-6.168;106.796;2023-03-09T09:39:27;100833.94;;;31.18;66.67
74474;BME280;62922;-6.168;106.796;2023-03-09T09:41:54;100836.75;;;31.18;66.51
74474;BME280;62922;-6.168;106.796;2023-03-09T09:44:24;100838.41;;;31.19;66.91
74474;BME280;62922;-6.168;106.796;2023-03-09T09:46:51;100841.22;;;31.19;66.32
74474;BME280;62922;-6.168;106.796;2023-03-09T09:49:20;100840.38;;;31.19;66.64
74474;BME280;62922;-6.168;106.796;2023-03-09T09:56:51;100857.78;;;31.21;66.04
74474;BME280;62922;-6.168;106.796;2023-03-09T09:59:21;100853.00;;;31.21;65.94
74474;BME280;62922;-6.168;106.796;2023-03-09T10:01:52;100856.66;;;31.22;65.94
74474;BME280;62922;-6.168;106.796;2023-03-09T10:09:36;100862.78;;;31.24;66.07
74474;BME280;62922;-6.168;106.796;2023-03-09T10:12:04;100872.03;;;31.24;66.20
74474;BME280;62922;-6.168;106.796;2023-03-09T10:14:34;100880.50;;;31.24;65.78
74474;BME280;62922;-6.168;106.796;2023-03-09T10:19:32;100889.16;;;31.11;66.41
74474;BME280;62922;-6.168;106.796;2023-03-09T10:24:32;100882.53;;;31.07;66.13
74474;BME280;62922;-6.168;106.796;2023-03-09T10:27:03;100893.81;;;31.07;66.30
74474;BME280;62922;-6.168;106.796;2023-03-09T10:29:38;100893.81;;;31.07;66.36
74474;BME280;62922;-6.168;106.796;2023-03-09T10:32:09;100897.78;;;31.06;66.06
74474;BME280;62922;-6.168;106.796;2023-03-09T10:34:39;100898.09;;;31.04;66.37
74474;BME280;62922;-6.168;106.796;2023-03-09T10:37:13;100908.56;;;31.04;66.21
74474;BME280;62922;-6.168;106.796;2023-03-09T10:39:43;100904.91;;;31.03;65.92
74474;BME280;62922;-6.168;106.796;2023-03-09T10:44:47;100915.34;;;31.03;65.80
74474;BME280;62922;-6.168;106.796;2023-03-09T10:47:18;100921.81;;;31.03;66.00
74474;BME280;62922;-6.168;106.796;2023-03-09T10:49:57;100925.81;;;31.02;66.17
74474;BME280;62922;-6.168;106.796;2023-03-09T10:52:30;100923.81;;;31.03;65.66
74474;BME280;62922;-6.168;106.796;2023-03-09T10:54:56;100932.59;;;31.01;65.54
74474;BME280;62922;-6.168;106.796;2023-03-09T10:57:23;100927.78;;;31.02;65.69
74474;BME280;62922;-6.168;106.796;2023-03-09T10:59:55;100930.63;;;31.02;65.62
74474;BME280;62922;-6.168;106.796;2023-03-09T11:02:27;100924.97;;;31.02;65.92
74474;BME280;62922;-6.168;106.796;2023-03-09T11:04:54;100929.78;;;31.01;65.58
74474;BME280;62922;-6.168;106.796;2023-03-09T11:07:22;100929.78;;;31.01;65.54
74474;BME280;62922;-6.168;106.796;2023-03-09T11:09:50;100936.59;;;31.00;65.70
74474;BME280;62922;-6.168;106.796;2023-03-09T11:14:48;100943.03;;;31.01;65.85
74474;BME280;62922;-6.168;106.796;2023-03-09T11:22:41;100946.19;;;30.99;65.80
74474;BME280;62922;-6.168;106.796;2023-03-09T11:27:56;100962.25;;;30.99;65.49
74474;BME280;62922;-6.168;106.796;2023-03-09T11:30:25;100953.50;;;31.00;65.47
74474;BME280;62922;-6.168;106.796;2023-03-09T11:32:53;100964.78;;;31.00;65.80
74474;BME280;62922;-6.168;106.796;2023-03-09T11:35:19;100954.63;;;30.99;65.48
74474;BME280;62922;-6.168;106.796;2023-03-09T11:37:49;100967.59;;;31.00;65.94
74474;BME280;62922;-6.168;106.796;2023-03-09T11:40:18;100970.72;;;30.99;66.01
74474;BME280;62922;-6.168;106.796;2023-03-09T11:42:45;100966.75;;;31.00;65.88
74474;BME280;62922;-6.168;106.796;2023-03-09T11:45:14;100964.28;;;30.98;65.91
74474;BME280;62922;-6.168;106.796;2023-03-09T11:47:44;100963.44;;;30.98;65.55
74474;BME280;62922;-6.168;106.796;2023-03-09T11:50:16;100970.72;;;30.99;65.74
74474;BME280;62922;-6.168;106.796;2023-03-09T11:52:48;100965.41;;;30.97;65.78
74474;BME280;62922;-6.168;106.796;2023-03-09T11:55:17;100969.91;;;30.98;66.25
74474;BME280;62922;-6.168;106.796;2023-03-09T11:57:44;100969.06;;;30.98;66.08
74474;BME280;62922;-6.168;106.796;2023-03-09T12:00:13;100987.63;;;30.99;66.29
74474;BME280;62922;-6.168;106.796;2023-03-09T12:05:26;100973.06;;;30.97;65.99
74474;BME280;62922;-6.168;106.796;2023-03-09T12:07:58;100974.19;;;30.96;66.02
74474;BME280;62922;-6.168;106.796;2023-03-09T12:10:51;100980.69;;;30.96;66.27
74474;BME280;62922;-6.168;106.796;2023-03-09T12:13:17;100975.38;;;30.95;66.22
74474;BME280;62922;-6.168;106.796;2023-03-09T12:15:55;100972.56;;;30.95;66.40
74474;BME280;62922;-6.168;106.796;2023-03-09T12:18:27;100969.75;;;30.95;66.38
74474;BME280;62922;-6.168;106.796;2023-03-09T12:20:56;100979.00;;;30.95;66.17
74474;BME280;62922;-6.168;106.796;2023-03-09T12:28:54;100990.94;;;30.92;66.28
74474;BME280;62922;-6.168;106.796;2023-03-09T12:31:43;100991.28;;;30.91;66.11
74474;BME280;62922;-6.168;106.796;2023-03-09T12:36:36;101000.91;;;30.98;67.33
74474;BME280;62922;-6.168;106.796;2023-03-09T12:49:46;101016.66;;;30.99;67.85
74474;BME280;62922;-6.168;106.796;2023-03-09T12:52:16;101024.25;;;30.99;67.77
74474;BME280;62922;-6.168;106.796;2023-03-09T12:54:51;101027.41;;;30.97;67.88
74474;BME280;62922;-6.168;106.796;2023-03-09T12:57:20;101026.59;;;30.97;68.12
74474;BME280;62922;-6.168;106.796;2023-03-09T12:59:46;101025.75;;;30.96;68.14
74474;BME280;62922;-6.168;106.796;2023-03-09T13:02:26;101031.75;;;30.95;68.54
74474;BME280;62922;-6.168;106.796;2023-03-09T13:07:39;101040.50;;;30.93;68.08
74474;BME280;62922;-6.168;106.796;2023-03-09T13:10:05;101043.66;;;30.92;67.90
74474;BME280;62922;-6.168;106.796;2023-03-09T13:12:32;101045.66;;;30.91;68.04
74474;BME280;62922;-6.168;106.796;2023-03-09T13:15:03;101052.44;;;30.90;68.07
74474;BME280;62922;-6.168;106.796;2023-03-09T13:19:56;101068.84;;;30.88;68.19
74474;BME280;62922;-6.168;106.796;2023-03-09T13:22:38;101071.66;;;30.88;68.30
74474;BME280;62922;-6.168;106.796;2023-03-09T13:25:20;101073.66;;;30.88;68.10
74474;BME280;62922;-6.168;106.796;2023-03-09T13:27:48;101074.81;;;30.87;68.39
74474;BME280;62922;-6.168;106.796;2023-03-09T13:30:19;101077.94;;;30.85;68.41
74474;BME280;62922;-6.168;106.796;2023-03-09T13:35:16;101085.56;;;30.85;68.51